Terminal Aerodrome Forecast
Issued by NWS Omaha/Valley, NE

Home | Current Version | Previous Version | Text Only | Print | Product List | Glossary On
Versions: 1 2 3 4 5 6 7 8 9 10 11 12 13 14 15 16 17 18 19 20 21 22 23 24 25 26 27 28
000
FTUS43 KOAX 202328
TAFOFK
TAF
KOFK 202328Z 2100/2124 17020G29KT P6SM SCT060
     FM210700 17019KT P6SM VCTS BKN050CB
     FM210900 17018KT P6SM BKN025
     FM211500 29013KT P6SM VCSH BKN030
     FM212100 32015KT P6SM BKN070=

USA.gov is the U.S. government's official web portal to all federal, state and local government web resources and services.